Portada
METAR-TAF:

METAR-TAF

Aeroports :

Niamtougou, Togo

latitud: 09-46N, longitud: 001-06E, altitud: 342 m

Observació

L'informe es va fer fa 1 hora i 19 minuts, a les 15:00 UTC
Vent 3 kt del Sud-Oest, variant entre Sud/Sud-Est i Nord-Oest
Temperatura 35°C
Humitat 9%
Pressió 1011 hPa
Visibilitat: 2000 m
calitja

METAR: DXNG 261500Z 22003KT 160V310 2000 HZ NSC 35/M02 Q1011

Hora: 16:19 (16:19 UTC)

Pronòstic

L'informe es va fer fa 5 hores i 19 minuts, a les 11:00 UTC
Pronòstic vàlid del 26 a les 12 UTC al 27 a les 12 UTC
Vent 12 kt del Est
Visibilitat: 2000 m
calitja

TAF: DXNG 261100Z 2612/2712 08012KT 2000 HZ NSC

Observacions i pronòstics meteorològics de més de 4000 aeroports (METAR i TAF).

Les estacions disponibles són els punts grocs i vermells al mapa.

Posi el ratolí al punt desitjat per veure el nom de l'estació.

Feu clic per veure les observacions i els pronòstics meteorològics.

Per canviar el mapa: feu clic els botons verds amb una creu de color negre per apropar; al botó verd amb un guió per allunyar la imatge; o en les fletxes verdes per a mapes adjacents.


METAR-TAF: